createdAt,value
2018-07-16T00:00:30.400Z,98236.25
2018-07-16T00:02:59.048Z,98243.66
2018-07-16T00:05:27.774Z,98248.13
2018-07-16T00:07:56.449Z,98244.27
2018-07-16T00:10:25.038Z,98253.41
2018-07-16T00:12:53.727Z,98262.15
2018-07-16T00:15:22.412Z,98256.31
2018-07-16T00:17:50.998Z,98257.97
2018-07-16T00:20:19.503Z,98264.63
2018-07-16T00:22:48.156Z,98259.27
2018-07-16T00:25:16.699Z,98257.20
2018-07-16T00:27:45.210Z,98252.05
2018-07-16T00:30:13.784Z,98264.17
2018-07-16T00:32:42.362Z,98262.95
2018-07-16T00:35:11.008Z,98257.29
2018-07-16T00:37:39.594Z,98255.17
2018-07-16T00:40:08.211Z,98255.45
2018-07-16T00:42:36.856Z,98257.65
2018-07-16T00:45:06.768Z,98249.54
2018-07-16T00:47:35.371Z,98245.68
2018-07-16T00:50:04.032Z,98247.99
2018-07-16T00:52:32.862Z,98242.20
2018-07-16T00:55:01.442Z,98239.89
2018-07-16T00:57:30.116Z,98245.52
2018-07-16T00:59:58.714Z,98245.82
2018-07-16T01:02:27.225Z,98250.78
2018-07-16T01:04:55.888Z,98246.20
2018-07-16T01:07:24.625Z,98240.94
2018-07-16T01:09:54.372Z,98242.87
2018-07-16T01:12:23.037Z,98244.55
2018-07-16T01:14:51.711Z,98245.89
2018-07-16T01:17:20.291Z,98240.37
2018-07-16T01:19:48.859Z,98241.71
2018-07-16T01:22:17.526Z,98238.67
2018-07-16T01:24:46.205Z,98238.56
2018-07-16T01:27:15.125Z,98243.25
2018-07-16T01:29:43.703Z,98245.73
2018-07-16T01:32:12.265Z,98246.78
2018-07-16T01:34:40.784Z,98244.28
2018-07-16T01:37:09.418Z,98252.01
2018-07-16T01:39:37.948Z,98257.19
2018-07-16T01:42:06.487Z,98255.45
2018-07-16T01:44:35.069Z,98259.66
2018-07-16T01:47:03.647Z,98249.64
2018-07-16T01:49:32.248Z,98264.66
2018-07-16T01:52:00.802Z,98262.52
2018-07-16T01:54:29.440Z,98263.13
2018-07-16T01:56:58.200Z,98270.87
2018-07-16T01:59:26.772Z,98277.36
2018-07-16T02:01:55.368Z,98279.17
2018-07-16T02:04:23.963Z,98280.52
2018-07-16T02:06:52.585Z,98280.31
2018-07-16T02:09:21.135Z,98283.48
2018-07-16T02:11:49.642Z,98283.15
2018-07-16T02:14:18.245Z,98282.38
2018-07-16T02:16:46.835Z,98280.83
2018-07-16T02:19:15.538Z,98272.44
2018-07-16T02:21:44.265Z,98265.33
2018-07-16T02:24:12.914Z,98259.42
2018-07-16T02:26:41.528Z,98262.75
2018-07-16T02:29:10.202Z,98263.40
2018-07-16T02:31:38.747Z,98263.48
2018-07-16T02:34:07.332Z,98262.14
2018-07-16T02:36:35.938Z,98258.05
2018-07-16T02:39:04.872Z,98257.60
2018-07-16T02:41:33.476Z,98257.95
2018-07-16T02:44:02.140Z,98262.03
2018-07-16T02:46:30.888Z,98265.09
2018-07-16T02:48:59.571Z,98264.69
2018-07-16T02:51:28.184Z,98252.20
2018-07-16T02:53:57.135Z,98259.27
2018-07-16T02:56:25.838Z,98258.98
2018-07-16T02:58:54.524Z,98257.45
2018-07-16T03:01:23.120Z,98262.83
2018-07-16T03:03:51.737Z,98269.13
2018-07-16T03:06:20.568Z,98273.89
2018-07-16T03:08:49.123Z,98267.87
2018-07-16T03:11:17.798Z,98267.30
2018-07-16T03:13:46.499Z,98273.83
2018-07-16T03:16:15.056Z,98269.80
2018-07-16T03:18:43.943Z,98267.34
2018-07-16T03:21:12.536Z,98263.20
2018-07-16T03:23:41.212Z,98262.13
2018-07-16T03:26:09.936Z,98260.81
2018-07-16T03:28:38.613Z,98264.63
2018-07-16T03:31:07.644Z,98262.91
2018-07-16T03:33:36.203Z,98264.09
2018-07-16T03:36:04.871Z,98254.80
2018-07-16T03:38:33.568Z,98264.63
2018-07-16T03:41:02.143Z,98258.17
2018-07-16T03:43:30.729Z,98256.03
2018-07-16T03:45:59.337Z,98246.94
2018-07-16T03:48:27.912Z,98243.90
2018-07-16T03:50:56.530Z,98226.52
2018-07-16T03:53:25.288Z,98240.34
2018-07-16T03:55:53.903Z,98240.55
2018-07-16T03:58:22.504Z,98233.12
2018-07-16T04:00:51.145Z,98230.84
2018-07-16T04:03:19.814Z,98232.63
2018-07-16T04:05:48.349Z,98237.03
2018-07-16T04:08:16.937Z,98234.78
2018-07-16T04:10:45.507Z,98237.47
2018-07-16T04:13:14.172Z,98230.99
2018-07-16T04:15:42.934Z,98235.20
2018-07-16T04:18:15.845Z,98235.63
2018-07-16T04:20:44.520Z,98230.14
2018-07-16T04:23:13.457Z,98238.42
2018-07-16T04:25:42.396Z,98237.28
2018-07-16T04:28:11.498Z,98220.53
2018-07-16T04:30:40.833Z,98235.18
2018-07-16T04:33:09.870Z,98230.97
2018-07-16T04:35:38.530Z,98227.91
2018-07-16T04:38:07.211Z,98237.27
2018-07-16T04:40:35.953Z,98236.88
2018-07-16T04:43:04.575Z,98240.09
2018-07-16T04:45:33.094Z,98242.97
2018-07-16T04:48:01.755Z,98242.96
2018-07-16T04:50:30.313Z,98249.81
2018-07-16T04:52:58.969Z,98240.95
2018-07-16T04:55:27.660Z,98244.23
2018-07-16T04:57:56.248Z,98238.27
2018-07-16T05:00:31.336Z,98231.44
2018-07-16T05:03:00.006Z,98231.23
2018-07-16T05:05:28.924Z,98224.81
2018-07-16T05:07:57.598Z,98229.83
2018-07-16T05:10:26.141Z,98219.05
2018-07-16T05:12:54.749Z,98223.43
2018-07-16T05:15:23.526Z,98216.98
2018-07-16T05:17:52.290Z,98217.11
2018-07-16T05:20:20.894Z,98220.27
2018-07-16T05:22:49.509Z,98217.95
2018-07-16T05:25:18.212Z,98221.03
2018-07-16T05:27:46.806Z,98222.12
2018-07-16T05:30:15.514Z,98229.36
2018-07-16T05:32:44.524Z,98232.97
2018-07-16T05:35:12.901Z,98233.96
2018-07-16T05:37:41.498Z,98232.78
2018-07-16T05:40:10.080Z,98231.06
2018-07-16T05:42:38.698Z,98239.45
2018-07-16T05:45:07.537Z,98237.31
2018-07-16T05:47:36.196Z,98225.77
2018-07-16T05:50:04.753Z,98239.02
2018-07-16T05:52:33.411Z,98242.68
2018-07-16T05:55:02.171Z,98241.28
2018-07-16T05:57:30.877Z,98240.13
2018-07-16T05:59:59.504Z,98235.31
2018-07-16T06:02:28.169Z,98237.81
2018-07-16T06:04:56.890Z,98234.39
2018-07-16T06:07:25.471Z,98240.09
2018-07-16T06:09:54.166Z,98235.61
2018-07-16T06:12:22.770Z,98233.24
2018-07-16T06:14:51.484Z,98230.33
2018-07-16T06:17:20.140Z,98235.24
2018-07-16T06:19:48.732Z,98234.08
2018-07-16T06:22:17.468Z,98236.00
2018-07-16T06:24:46.037Z,98237.43
2018-07-16T06:27:14.647Z,98237.73
2018-07-16T06:29:43.216Z,98244.33
2018-07-16T06:32:11.908Z,98249.24
2018-07-16T06:34:40.520Z,98244.03
2018-07-16T06:37:09.123Z,98241.58
2018-07-16T06:39:38.000Z,98245.67
2018-07-16T06:42:06.669Z,98241.70
2018-07-16T06:44:35.315Z,98244.38
2018-07-16T06:47:04.056Z,98248.39
2018-07-16T06:49:32.853Z,98242.79
2018-07-16T06:52:01.465Z,98245.89
2018-07-16T06:54:30.164Z,98239.34
2018-07-16T06:56:58.748Z,98247.68
2018-07-16T06:59:27.363Z,98239.48
2018-07-16T07:01:55.913Z,98242.13
2018-07-16T07:04:24.567Z,98239.52
2018-07-16T07:06:53.229Z,98230.84
2018-07-16T07:09:21.914Z,98231.34
2018-07-16T07:11:50.584Z,98230.99
2018-07-16T07:14:19.325Z,98238.39
2018-07-16T07:16:48.019Z,98237.92
2018-07-16T07:19:16.559Z,98238.55
2018-07-16T07:21:45.111Z,98240.38
2018-07-16T07:24:13.789Z,98234.11
2018-07-16T07:26:42.373Z,98225.16
2018-07-16T07:29:10.923Z,98229.74
2018-07-16T07:31:39.558Z,98227.34
2018-07-16T07:34:08.186Z,98222.25
2018-07-16T07:36:36.779Z,98214.34
2018-07-16T07:39:06.706Z,98220.08
2018-07-16T07:41:35.285Z,98216.44
2018-07-16T07:44:03.917Z,98220.86
2018-07-16T07:46:32.893Z,98219.55
2018-07-16T07:49:01.959Z,98218.92
2018-07-16T07:51:30.606Z,98218.30
2018-07-16T07:53:59.393Z,98220.38
2018-07-16T07:56:28.019Z,98206.10
2018-07-16T07:58:56.799Z,98196.08
2018-07-16T08:01:25.530Z,98204.14
2018-07-16T08:03:54.137Z,98206.83
2018-07-16T08:06:22.774Z,98202.94
2018-07-16T08:08:51.327Z,98205.45
2018-07-16T08:11:19.991Z,98204.76
2018-07-16T08:13:48.602Z,98208.41
2018-07-16T08:16:17.644Z,98207.13
2018-07-16T08:18:46.264Z,98211.36
2018-07-16T08:21:14.981Z,98203.03
2018-07-16T08:23:43.761Z,98204.42
2018-07-16T08:26:12.404Z,98205.41
2018-07-16T08:28:41.024Z,98206.12
2018-07-16T08:31:09.648Z,98202.37
2018-07-16T08:33:38.383Z,98199.81
2018-07-16T08:36:06.996Z,98200.81
2018-07-16T08:38:35.612Z,98200.33
2018-07-16T08:41:04.326Z,98201.59
2018-07-16T08:43:32.920Z,98192.76
2018-07-16T08:46:01.531Z,98195.10
2018-07-16T08:48:30.118Z,98197.25
2018-07-16T08:50:58.717Z,98186.07
2018-07-16T08:53:27.341Z,98185.08
2018-07-16T08:55:55.938Z,98183.12
2018-07-16T08:58:24.620Z,98177.80
2018-07-16T09:00:53.160Z,98187.50
2018-07-16T09:03:21.646Z,98188.22
2018-07-16T09:05:54.406Z,98190.85
2018-07-16T09:08:23.052Z,98184.27
2018-07-16T09:10:51.679Z,98184.27
2018-07-16T09:13:20.205Z,98181.79
2018-07-16T09:15:48.798Z,98171.64
2018-07-16T09:18:17.426Z,98177.82
2018-07-16T09:20:45.934Z,98175.12
2018-07-16T09:23:14.554Z,98177.11
2018-07-16T09:25:43.338Z,98175.28
2018-07-16T09:28:11.938Z,98167.47
2018-07-16T09:30:40.570Z,98166.59
2018-07-16T09:33:09.164Z,98168.06
2018-07-16T09:35:38.040Z,98163.01
2018-07-16T09:38:06.952Z,98156.86
2018-07-16T09:40:35.813Z,98158.56
2018-07-16T09:43:04.679Z,98155.36
2018-07-16T09:45:33.397Z,98157.25
2018-07-16T09:48:02.110Z,98154.46
2018-07-16T09:50:30.744Z,98156.57
2018-07-16T09:52:59.453Z,98158.37
2018-07-16T09:55:28.250Z,98155.97
2018-07-16T09:57:57.580Z,98156.64
2018-07-16T10:00:31.803Z,98151.11
2018-07-16T10:03:00.481Z,98146.73
2018-07-16T10:05:29.187Z,98147.45
2018-07-16T10:07:57.793Z,98146.92
2018-07-16T10:10:26.482Z,98142.05
2018-07-16T10:12:55.162Z,98131.78
2018-07-16T10:15:23.826Z,98132.16
2018-07-16T10:17:52.588Z,98135.84
2018-07-16T10:20:21.249Z,98134.53
2018-07-16T10:22:49.812Z,98129.48
2018-07-16T10:25:18.479Z,98134.25
2018-07-16T10:27:47.134Z,98133.19
2018-07-16T10:30:15.707Z,98132.47
2018-07-16T10:32:44.249Z,98126.52
2018-07-16T10:35:12.906Z,98129.38
2018-07-16T10:37:41.506Z,98122.36
2018-07-16T10:40:10.139Z,98120.73
2018-07-16T10:42:39.865Z,98121.56
2018-07-16T10:45:08.680Z,98124.09
2018-07-16T10:47:37.318Z,98125.51
2018-07-16T10:50:06.054Z,98123.03
2018-07-16T10:52:34.651Z,98119.47
2018-07-16T10:55:03.351Z,98120.67
2018-07-16T10:57:31.962Z,98115.19
2018-07-16T11:00:00.596Z,98110.88
2018-07-16T11:02:29.212Z,98114.88
2018-07-16T11:04:57.907Z,98114.04
2018-07-16T11:07:26.502Z,98113.61
2018-07-16T11:09:55.249Z,98113.33
2018-07-16T11:12:24.068Z,98109.78
2018-07-16T11:14:52.817Z,98105.33
2018-07-16T11:17:21.515Z,98096.83
2018-07-16T11:19:50.142Z,98092.14
2018-07-16T11:22:18.814Z,98086.27
2018-07-16T11:24:47.476Z,98087.97
2018-07-16T11:27:16.174Z,98083.48
2018-07-16T11:29:44.980Z,98087.48
2018-07-16T11:32:13.580Z,98088.28
2018-07-16T11:34:42.149Z,98080.49
2018-07-16T11:37:10.816Z,98080.02
2018-07-16T11:39:39.417Z,98077.95
2018-07-16T11:42:08.506Z,98076.75
2018-07-16T11:44:37.326Z,98072.73
2018-07-16T11:47:05.895Z,98072.91
2018-07-16T11:49:34.521Z,98064.30
2018-07-16T11:52:03.186Z,98061.88
2018-07-16T11:54:31.980Z,98057.63
2018-07-16T11:57:00.658Z,98057.20
2018-07-16T11:59:29.312Z,98055.98
2018-07-16T12:01:58.101Z,98048.24
2018-07-16T12:04:26.685Z,98047.39
2018-07-16T12:06:55.381Z,98045.02
2018-07-16T12:09:24.161Z,98050.41
2018-07-16T12:11:52.806Z,98042.22
2018-07-16T12:14:21.928Z,98037.67
2018-07-16T12:16:50.781Z,98022.00
2018-07-16T12:19:19.593Z,98029.38
2018-07-16T12:21:48.203Z,98025.34
2018-07-16T12:24:16.832Z,98016.62
2018-07-16T12:26:45.417Z,98019.14
2018-07-16T12:29:14.055Z,98024.92
2018-07-16T12:31:42.724Z,98004.95
2018-07-16T12:34:11.412Z,98006.05
2018-07-16T12:36:39.991Z,98011.36
2018-07-16T12:39:08.652Z,98011.27
2018-07-16T12:41:37.390Z,98006.03
2018-07-16T12:44:06.128Z,98008.42
2018-07-16T12:46:34.812Z,98000.35
2018-07-16T12:49:03.516Z,98004.31
2018-07-16T12:51:32.324Z,98005.73
2018-07-16T12:54:01.099Z,98001.56
2018-07-16T12:56:29.808Z,97999.77
2018-07-16T12:58:58.549Z,98000.95
2018-07-16T13:01:27.145Z,97993.53
2018-07-16T13:03:55.692Z,97993.48
2018-07-16T13:06:24.519Z,97989.25
2018-07-16T13:08:54.655Z,97980.64
2018-07-16T13:11:23.275Z,97980.08
2018-07-16T13:13:51.974Z,97967.09
2018-07-16T13:16:20.753Z,97971.30
2018-07-16T13:18:49.621Z,97968.95
2018-07-16T13:21:19.405Z,97961.91
2018-07-16T13:23:48.115Z,97963.84
2018-07-16T13:26:16.879Z,97965.86
2018-07-16T13:28:45.549Z,97960.25
2018-07-16T13:31:15.387Z,97957.13
2018-07-16T13:33:44.047Z,97954.64
2018-07-16T13:36:12.755Z,97959.06
2018-07-16T13:38:41.418Z,97954.66
2018-07-16T13:41:09.947Z,97942.61
2018-07-16T13:43:38.631Z,97948.48
2018-07-16T13:46:07.611Z,97947.26
2018-07-16T13:48:36.203Z,97948.75
2018-07-16T13:51:04.885Z,97941.38
2018-07-16T13:53:33.593Z,97938.63
2018-07-16T13:56:02.253Z,97932.59
2018-07-16T13:58:30.900Z,97936.65
2018-07-16T14:00:59.515Z,97930.66
2018-07-16T14:03:28.097Z,97944.60
2018-07-16T14:05:56.781Z,97948.18
2018-07-16T14:08:25.310Z,97941.89
2018-07-16T14:10:54.981Z,97939.97
2018-07-16T14:13:23.781Z,97937.52
2018-07-16T14:15:52.569Z,97924.00
2018-07-16T14:18:21.160Z,97928.16
2018-07-16T14:20:49.732Z,97919.02
2018-07-16T14:23:18.388Z,97920.19
2018-07-16T14:25:46.981Z,97912.39
2018-07-16T14:28:15.619Z,97904.09
2018-07-16T14:30:44.355Z,97908.25
2018-07-16T14:33:13.026Z,97906.00
2018-07-16T14:35:41.586Z,97907.52
2018-07-16T14:38:10.164Z,97903.89
2018-07-16T14:40:38.768Z,97898.08
2018-07-16T14:43:07.466Z,97903.13
2018-07-16T14:45:36.076Z,97897.67
2018-07-16T14:48:04.685Z,97898.72
2018-07-16T14:50:33.295Z,97891.71
2018-07-16T14:53:01.940Z,97893.16
2018-07-16T14:55:30.497Z,97885.08
2018-07-16T14:57:59.073Z,97881.83
2018-07-16T15:00:27.697Z,97884.59
2018-07-16T15:02:56.517Z,97881.10
2018-07-16T15:05:25.147Z,97882.02
2018-07-16T15:07:53.755Z,97871.39
2018-07-16T15:10:22.503Z,97869.73
2018-07-16T15:12:51.091Z,97877.23
2018-07-16T15:15:19.698Z,97876.63
2018-07-16T15:17:48.836Z,97876.27
2018-07-16T15:20:18.372Z,97871.39
2018-07-16T15:22:46.862Z,97868.11
2018-07-16T15:25:15.702Z,97872.13
2018-07-16T15:27:44.338Z,97865.88
2018-07-16T15:30:12.959Z,97874.71
2018-07-16T15:32:41.624Z,97862.98
2018-07-16T15:35:10.332Z,97859.80
2018-07-16T15:37:39.008Z,97857.20
2018-07-16T15:40:07.717Z,97850.23
2018-07-16T15:42:36.423Z,97851.53
2018-07-16T15:45:05.314Z,97850.05
2018-07-16T15:47:33.974Z,97851.37
2018-07-16T15:50:02.795Z,97844.54
2018-07-16T15:52:31.406Z,97846.27
2018-07-16T15:55:00.129Z,97834.86
2018-07-16T15:57:28.968Z,97843.10
2018-07-16T15:59:57.645Z,97835.84
2018-07-16T16:02:26.244Z,97835.64
2018-07-16T16:04:54.865Z,97831.25
2018-07-16T16:07:23.466Z,97825.56
2018-07-16T16:09:52.130Z,97823.92
2018-07-16T16:12:20.789Z,97827.48
2018-07-16T16:14:49.410Z,97828.87
2018-07-16T16:17:18.137Z,97824.20
2018-07-16T16:19:46.724Z,97820.25
2018-07-16T16:22:15.387Z,97813.47
2018-07-16T16:24:44.080Z,97810.94
2018-07-16T16:27:12.637Z,97810.52
2018-07-16T16:29:41.261Z,97810.55
2018-07-16T16:32:09.879Z,97817.59
2018-07-16T16:34:38.683Z,97815.06
2018-07-16T16:37:07.269Z,97817.45
2018-07-16T16:39:36.120Z,97817.48
2018-07-16T16:42:04.871Z,97810.84
2018-07-16T16:44:33.717Z,97813.17
2018-07-16T16:47:02.549Z,97813.81
2018-07-16T16:49:31.142Z,97814.06
2018-07-16T16:51:59.761Z,97804.30
2018-07-16T16:54:28.452Z,97806.75
2018-07-16T16:56:57.025Z,97807.56
2018-07-16T16:59:25.693Z,97804.43
2018-07-16T17:01:54.342Z,97805.25
2018-07-16T17:04:22.993Z,97794.67
2018-07-16T17:06:51.652Z,97781.51
2018-07-16T17:09:20.249Z,97785.05
2018-07-16T17:11:48.883Z,97780.09
2018-07-16T17:14:17.482Z,97778.69
2018-07-16T17:16:46.088Z,97795.05
2018-07-16T17:19:14.890Z,97794.47
2018-07-16T17:21:43.532Z,97791.86
2018-07-16T17:24:12.206Z,97795.28
2018-07-16T17:26:40.869Z,97800.30
2018-07-16T17:29:09.491Z,97795.61
2018-07-16T17:31:38.247Z,97797.53
2018-07-16T17:34:06.832Z,97799.35
2018-07-16T17:36:35.392Z,97799.58
2018-07-16T17:39:05.155Z,97799.29
2018-07-16T17:41:33.713Z,97798.03
2018-07-16T17:44:02.354Z,97800.92
2018-07-16T17:46:31.225Z,97800.91
2018-07-16T17:48:59.992Z,97800.89
2018-07-16T17:51:28.924Z,97800.35
2018-07-16T17:54:00.361Z,97806.46
2018-07-16T17:56:30.689Z,97809.30
2018-07-16T17:59:01.579Z,97813.54
2018-07-16T18:01:30.370Z,97815.02
2018-07-16T18:03:58.944Z,97815.69
2018-07-16T18:06:27.703Z,97819.97
2018-07-16T18:14:51.620Z,97825.92
2018-07-16T18:17:20.272Z,97830.14
2018-07-16T18:19:52.135Z,97824.13
2018-07-16T18:22:20.799Z,97836.46
2018-07-16T18:24:49.789Z,97837.48
2018-07-16T18:27:18.987Z,97836.00
2018-07-16T18:29:50.593Z,97843.59
2018-07-16T18:32:20.064Z,97838.64
2018-07-16T18:34:49.621Z,97847.52
2018-07-16T18:37:19.806Z,97844.70
2018-07-16T18:39:54.828Z,97851.78
2018-07-16T18:42:24.317Z,97847.90
2018-07-16T18:44:54.787Z,97849.64
2018-07-16T18:47:23.621Z,97864.65
2018-07-16T18:49:54.092Z,97867.52
2018-07-16T18:52:25.018Z,97873.84
2018-07-16T18:54:54.243Z,97881.25
2018-07-16T18:57:23.844Z,97881.55
2018-07-16T18:59:53.026Z,97887.17
2018-07-16T19:02:21.720Z,97888.73
2018-07-16T19:04:50.908Z,97895.27
2018-07-16T19:07:22.652Z,97898.85
2018-07-16T19:09:52.291Z,97910.27
2018-07-16T19:12:21.375Z,97913.70
2018-07-16T19:14:50.002Z,97913.99
2018-07-16T19:17:19.981Z,97920.05
2018-07-16T19:19:49.062Z,97923.21
2018-07-16T19:22:17.940Z,97925.34
2018-07-16T19:24:47.585Z,97928.35
2018-07-16T19:27:17.528Z,97931.97
2018-07-16T19:29:46.307Z,97930.90
2018-07-16T19:32:15.579Z,97927.16
2018-07-16T19:34:44.893Z,97932.31
2018-07-16T19:37:13.871Z,97935.66
2018-07-16T19:39:42.838Z,97941.77
2018-07-16T19:42:12.707Z,97939.48
2018-07-16T19:44:41.690Z,97944.92
2018-07-16T19:47:11.946Z,97952.05
2018-07-16T19:49:41.003Z,97949.73
2018-07-16T19:52:09.820Z,97959.16
2018-07-16T19:54:39.593Z,97952.56
2018-07-16T19:57:08.816Z,97960.17
2018-07-16T19:59:37.805Z,97957.95
2018-07-16T20:02:06.804Z,97960.76
2018-07-16T20:04:35.636Z,97966.39
2018-07-16T20:07:04.678Z,97966.50
2018-07-16T20:09:33.688Z,97968.73
2018-07-16T20:12:02.868Z,97968.72
2018-07-16T20:14:31.695Z,97972.50
2018-07-16T20:17:00.897Z,97971.16
2018-07-16T20:19:29.635Z,97975.45
2018-07-16T20:21:58.210Z,97980.19
2018-07-16T20:24:27.722Z,97977.73
2018-07-16T20:26:56.689Z,97986.45
2018-07-16T20:29:25.867Z,97986.57
2018-07-16T20:31:55.042Z,97984.25
2018-07-16T20:34:23.995Z,97988.38
2018-07-16T20:36:53.503Z,97993.05
2018-07-16T20:39:23.047Z,97995.96
2018-07-16T20:41:52.351Z,98001.09
2018-07-16T20:44:21.502Z,98002.78
2018-07-16T20:46:50.818Z,98005.56
2018-07-16T20:49:19.681Z,98006.72
2018-07-16T20:51:48.630Z,98008.30
2018-07-16T20:54:17.797Z,98016.09
2018-07-16T20:56:46.430Z,98013.45
2018-07-16T20:59:15.936Z,98009.83
2018-07-16T21:01:44.739Z,98006.47
2018-07-16T21:04:13.567Z,98014.64
2018-07-16T21:06:42.420Z,98009.38
2018-07-16T21:09:12.116Z,98013.88
2018-07-16T21:11:41.153Z,98012.16
2018-07-16T21:14:10.310Z,98010.06
2018-07-16T21:16:39.174Z,98011.17
2018-07-16T21:19:08.360Z,98015.44
2018-07-16T21:21:36.872Z,98013.11
2018-07-16T21:24:05.734Z,98016.19
2018-07-16T21:26:35.192Z,98022.38
2018-07-16T21:29:03.942Z,98019.17
2018-07-16T21:31:33.683Z,98021.86
2018-07-16T21:34:02.650Z,98019.25
2018-07-16T21:36:32.392Z,98018.57
2018-07-16T21:39:00.949Z,98029.77
2018-07-16T21:41:29.792Z,98026.55
2018-07-16T21:43:58.831Z,98028.88
2018-07-16T21:46:27.888Z,98031.17
2018-07-16T21:48:56.733Z,98032.22
2018-07-16T21:51:25.515Z,98032.02
2018-07-16T21:53:54.220Z,98027.83
2018-07-16T21:56:23.222Z,98036.25
2018-07-16T21:58:52.052Z,98037.02
2018-07-16T22:01:21.054Z,98033.31
2018-07-16T22:03:50.158Z,98032.47
2018-07-16T22:06:20.031Z,98035.64
2018-07-16T22:08:49.016Z,98036.71
2018-07-16T22:11:17.830Z,98043.19
2018-07-16T22:13:47.593Z,98049.16
2018-07-16T22:16:17.357Z,98036.34
2018-07-16T22:18:49.219Z,98040.50
2018-07-16T22:21:18.007Z,98035.21
2018-07-16T22:23:46.888Z,98040.25
2018-07-16T22:26:15.827Z,98044.20
2018-07-16T22:28:45.194Z,98041.27
2018-07-16T22:31:14.028Z,98046.58
2018-07-16T22:33:42.775Z,98045.38
2018-07-16T22:36:11.497Z,98040.99
2018-07-16T22:38:41.037Z,98050.42
2018-07-16T22:41:10.258Z,98049.34
2018-07-16T22:43:39.060Z,98050.86
2018-07-16T22:46:07.701Z,98059.35
2018-07-16T22:48:37.373Z,98052.78
2018-07-16T22:51:06.866Z,98056.63
2018-07-16T22:53:35.799Z,98059.17
2018-07-16T22:56:04.640Z,98061.85
2018-07-16T22:58:34.743Z,98067.38
2018-07-16T23:01:04.359Z,98063.50
2018-07-16T23:03:33.545Z,98061.57
2018-07-16T23:06:02.537Z,98065.10
2018-07-16T23:08:31.685Z,98072.10
2018-07-16T23:11:02.739Z,98072.31
2018-07-16T23:13:31.401Z,98072.78
2018-07-16T23:16:00.471Z,98081.63
2018-07-16T23:18:30.095Z,98075.39
2018-07-16T23:20:59.749Z,98079.25
2018-07-16T23:23:28.591Z,98085.75
2018-07-16T23:25:57.942Z,98084.33
2018-07-16T23:28:26.701Z,98084.34
2018-07-16T23:30:55.388Z,98087.50
2018-07-16T23:33:24.090Z,98092.50
2018-07-16T23:35:53.478Z,98097.27
2018-07-16T23:38:22.512Z,98093.91
2018-07-16T23:40:51.799Z,98095.09
2018-07-16T23:43:21.046Z,98095.30
2018-07-16T23:45:49.647Z,98105.52
2018-07-16T23:48:18.355Z,98100.73
2018-07-16T23:50:47.156Z,98090.33
2018-07-16T23:53:16.022Z,98095.79
2018-07-16T23:55:44.760Z,98097.13
2018-07-16T23:58:13.686Z,98098.95
